sensor_id;sensor_type;location;lat;lon;timestamp;pressure;altitude;pressure_sealevel;temperature;humidity
52983;BME280;48698;45.736;13.926;2023-01-28T00:01:22;97408.28;;;-0.68;100.00
52983;BME280;48698;45.736;13.926;2023-01-28T00:06:31;97323.72;;;-1.25;100.00
52983;BME280;48698;45.736;13.926;2023-01-28T00:11:34;97213.88;;;-1.65;100.00
52983;BME280;48698;45.736;13.926;2023-01-28T00:16:38;97387.66;;;-0.92;100.00
52983;BME280;48698;45.736;13.926;2023-01-28T00:21:42;97410.75;;;-0.56;100.00
52983;BME280;48698;45.736;13.926;2023-01-28T00:26:45;97417.50;;;-0.39;100.00
52983;BME280;48698;45.736;13.926;2023-01-28T00:31:49;97367.44;;;-0.69;100.00
52983;BME280;48698;45.736;13.926;2023-01-28T00:36:52;97364.09;;;-0.81;100.00
52983;BME280;48698;45.736;13.926;2023-01-28T00:42:02;97334.88;;;-1.12;100.00
52983;BME280;48698;45.736;13.926;2023-01-28T00:47:06;97405.03;;;-0.91;100.00
52983;BME280;48698;45.736;13.926;2023-01-28T00:52:27;97363.47;;;-1.03;100.00
52983;BME280;48698;45.736;13.926;2023-01-28T00:57:41;97456.03;;;-0.63;100.00
52983;BME280;48698;45.736;13.926;2023-01-28T01:02:44;97366.28;;;-1.26;100.00
52983;BME280;48698;45.736;13.926;2023-01-28T01:07:48;97471.78;;;-0.72;100.00
52983;BME280;48698;45.736;13.926;2023-01-28T01:12:52;97452.75;;;-0.81;100.00
52983;BME280;48698;45.736;13.926;2023-01-28T01:17:56;97389.69;;;-1.21;100.00
52983;BME280;48698;45.736;13.926;2023-01-28T01:23:01;97474.41;;;-0.75;100.00
52983;BME280;48698;45.736;13.926;2023-01-28T01:28:04;97490.00;;;-0.69;100.00
52983;BME280;48698;45.736;13.926;2023-01-28T01:33:08;97221.50;;;-2.39;100.00
52983;BME280;48698;45.736;13.926;2023-01-28T01:38:11;97411.53;;;-1.34;100.00
52983;BME280;48698;45.736;13.926;2023-01-28T01:43:45;97447.88;;;-1.16;100.00
52983;BME280;48698;45.736;13.926;2023-01-28T01:48:52;97517.94;;;-0.83;100.00
52983;BME280;48698;45.736;13.926;2023-01-28T01:53:57;97407.34;;;-1.53;100.00
52983;BME280;48698;45.736;13.926;2023-01-28T01:59:02;97537.88;;;-0.77;100.00
52983;BME280;48698;45.736;13.926;2023-01-28T02:04:28;97186.25;;;-2.84;100.00
52983;BME280;48698;45.736;13.926;2023-01-28T02:09:34;97413.47;;;-1.61;100.00
52983;BME280;48698;45.736;13.926;2023-01-28T02:14:45;97418.53;;;-1.42;100.00
52983;BME280;48698;45.736;13.926;2023-01-28T02:19:57;97516.22;;;-0.84;100.00
52983;BME280;48698;45.736;13.926;2023-01-28T02:30:21;97473.84;;;-1.07;100.00
52983;BME280;48698;45.736;13.926;2023-01-28T02:35:31;97513.66;;;-0.91;100.00
52983;BME280;48698;45.736;13.926;2023-01-28T02:40:41;97458.34;;;-1.25;100.00
52983;BME280;48698;45.736;13.926;2023-01-28T03:03:11;97509.22;;;-0.82;100.00
52983;BME280;48698;45.736;13.926;2023-01-28T03:08:16;97381.28;;;-1.50;100.00
52983;BME280;48698;45.736;13.926;2023-01-28T03:13:39;97488.41;;;-0.83;100.00
52983;BME280;48698;45.736;13.926;2023-01-28T03:19:01;97181.88;;;-2.78;100.00
52983;BME280;48698;45.736;13.926;2023-01-28T03:24:32;97497.88;;;-0.73;100.00
52983;BME280;48698;45.736;13.926;2023-01-28T03:30:08;97536.06;;;-0.69;100.00
52983;BME280;48698;45.736;13.926;2023-01-28T03:35:33;97465.09;;;-1.00;100.00
52983;BME280;48698;45.736;13.926;2023-01-28T03:41:10;97552.53;;;-0.63;100.00
52983;BME280;48698;45.736;13.926;2023-01-28T03:46:24;97488.47;;;-0.91;100.00
52983;BME280;48698;45.736;13.926;2023-01-28T03:51:38;97279.34;;;-2.07;100.00
52983;BME280;48698;45.736;13.926;2023-01-28T03:56:44;97274.16;;;-2.10;100.00
52983;BME280;48698;45.736;13.926;2023-01-28T04:01:57;97513.41;;;-0.63;100.00
52983;BME280;48698;45.736;13.926;2023-01-28T04:07:01;97475.38;;;-0.85;100.00
52983;BME280;48698;45.736;13.926;2023-01-28T04:12:14;97502.28;;;-0.83;100.00
52983;BME280;48698;45.736;13.926;2023-01-28T04:17:18;97494.47;;;-0.83;100.00
52983;BME280;48698;45.736;13.926;2023-01-28T04:22:22;97481.53;;;-0.95;100.00
52983;BME280;48698;45.736;13.926;2023-01-28T04:27:25;97392.47;;;-1.39;100.00
52983;BME280;48698;45.736;13.926;2023-01-28T04:32:28;97534.28;;;-0.64;100.00
52983;BME280;48698;45.736;13.926;2023-01-28T04:37:32;97494.56;;;-0.93;100.00
52983;BME280;48698;45.736;13.926;2023-01-28T04:42:35;97466.94;;;-1.14;100.00
52983;BME280;48698;45.736;13.926;2023-01-28T04:47:41;97379.75;;;-1.76;100.00
52983;BME280;48698;45.736;13.926;2023-01-28T04:52:44;97523.13;;;-0.83;100.00
52983;BME280;48698;45.736;13.926;2023-01-28T04:57:48;97537.84;;;-0.74;100.00
52983;BME280;48698;45.736;13.926;2023-01-28T05:02:51;97542.19;;;-0.75;100.00
52983;BME280;48698;45.736;13.926;2023-01-28T05:07:57;97481.72;;;-1.13;100.00
52983;BME280;48698;45.736;13.926;2023-01-28T05:13:08;97391.84;;;-1.72;100.00
52983;BME280;48698;45.736;13.926;2023-01-28T05:18:12;97506.75;;;-0.95;100.00
52983;BME280;48698;45.736;13.926;2023-01-28T05:23:16;97352.88;;;-1.85;100.00
52983;BME280;48698;45.736;13.926;2023-01-28T05:28:19;97451.34;;;-1.19;100.00
52983;BME280;48698;45.736;13.926;2023-01-28T05:33:29;97487.53;;;-0.85;100.00
52983;BME280;48698;45.736;13.926;2023-01-28T05:38:32;97415.91;;;-1.42;100.00
52983;BME280;48698;45.736;13.926;2023-01-28T05:43:36;97485.03;;;-0.97;100.00
52983;BME280;48698;45.736;13.926;2023-01-28T05:48:39;97432.47;;;-1.48;100.00
52983;BME280;48698;45.736;13.926;2023-01-28T05:53:43;97300.28;;;-2.28;100.00
52983;BME280;48698;45.736;13.926;2023-01-28T05:58:46;97556.84;;;-0.59;100.00
52983;BME280;48698;45.736;13.926;2023-01-28T06:03:50;97519.69;;;-0.85;100.00
52983;BME280;48698;45.736;13.926;2023-01-28T06:08:55;97437.53;;;-1.27;100.00
52983;BME280;48698;45.736;13.926;2023-01-28T06:13:58;97558.59;;;-0.61;100.00
52983;BME280;48698;45.736;13.926;2023-01-28T06:19:02;97576.88;;;-0.61;100.00
52983;BME280;48698;45.736;13.926;2023-01-28T06:24:07;97472.41;;;-1.52;100.00
52983;BME280;48698;45.736;13.926;2023-01-28T06:29:10;97517.31;;;-1.14;100.00
52983;BME280;48698;45.736;13.926;2023-01-28T06:34:14;97473.34;;;-1.58;100.00
52983;BME280;48698;45.736;13.926;2023-01-28T06:39:19;97527.66;;;-1.06;100.00
52983;BME280;48698;45.736;13.926;2023-01-28T06:44:24;97596.91;;;-0.69;100.00
52983;BME280;48698;45.736;13.926;2023-01-28T06:49:28;97337.59;;;-2.35;100.00
52983;BME280;48698;45.736;13.926;2023-01-28T06:54:31;97620.25;;;-0.50;100.00
52983;BME280;48698;45.736;13.926;2023-01-28T06:59:35;97585.72;;;-0.80;100.00
52983;BME280;48698;45.736;13.926;2023-01-28T07:04:38;97562.34;;;-0.95;100.00
52983;BME280;48698;45.736;13.926;2023-01-28T07:09:46;97572.69;;;-0.83;100.00
52983;BME280;48698;45.736;13.926;2023-01-28T07:14:56;97570.06;;;-0.80;100.00
52983;BME280;48698;45.736;13.926;2023-01-28T07:20:00;97701.72;;;-0.15;100.00
52983;BME280;48698;45.736;13.926;2023-01-28T07:25:04;97626.34;;;-0.53;100.00
52983;BME280;48698;45.736;13.926;2023-01-28T07:30:08;97594.25;;;-0.63;100.00
52983;BME280;48698;45.736;13.926;2023-01-28T07:35:12;97634.91;;;-0.34;100.00
52983;BME280;48698;45.736;13.926;2023-01-28T07:40:16;97621.91;;;-0.42;100.00
52983;BME280;48698;45.736;13.926;2023-01-28T07:45:19;97643.56;;;-0.31;100.00
52983;BME280;48698;45.736;13.926;2023-01-28T07:50:25;97639.16;;;-0.24;100.00
52983;BME280;48698;45.736;13.926;2023-01-28T07:55:28;97479.16;;;-1.21;100.00
52983;BME280;48698;45.736;13.926;2023-01-28T08:00:35;97632.38;;;-0.45;100.00
52983;BME280;48698;45.736;13.926;2023-01-28T08:05:47;97624.50;;;-0.39;100.00
52983;BME280;48698;45.736;13.926;2023-01-28T08:10:50;97659.00;;;-0.07;100.00
52983;BME280;48698;45.736;13.926;2023-01-28T08:16:05;97728.13;;;0.47;100.00
52983;BME280;48698;45.736;13.926;2023-01-28T08:21:08;97678.69;;;0.29;100.00
52983;BME280;48698;45.736;13.926;2023-01-28T08:26:12;97552.50;;;-0.60;100.00
52983;BME280;48698;45.736;13.926;2023-01-28T08:31:16;97749.13;;;0.38;100.00
52983;BME280;48698;45.736;13.926;2023-01-28T08:36:19;97439.47;;;-1.58;100.00
52983;BME280;48698;45.736;13.926;2023-01-28T08:41:23;97623.69;;;-0.48;100.00
52983;BME280;48698;45.736;13.926;2023-01-28T08:46:26;97757.13;;;0.17;100.00
52983;BME280;48698;45.736;13.926;2023-01-28T08:51:30;97721.75;;;-0.19;100.00
52983;BME280;48698;45.736;13.926;2023-01-28T08:56:34;97734.72;;;-0.08;100.00
52983;BME280;48698;45.736;13.926;2023-01-28T09:01:48;97793.66;;;0.26;100.00
52983;BME280;48698;45.736;13.926;2023-01-28T09:07:02;97735.47;;;0.08;100.00
52983;BME280;48698;45.736;13.926;2023-01-28T09:12:05;97673.00;;;-0.14;100.00
52983;BME280;48698;45.736;13.926;2023-01-28T09:17:10;97696.28;;;0.09;100.00
52983;BME280;48698;45.736;13.926;2023-01-28T09:22:14;97641.56;;;-0.03;100.00
52983;BME280;48698;45.736;13.926;2023-01-28T09:27:17;97684.56;;;0.46;100.00
52983;BME280;48698;45.736;13.926;2023-01-28T09:32:22;97715.59;;;0.77;100.00
52983;BME280;48698;45.736;13.926;2023-01-28T09:37:26;97518.22;;;-0.20;100.00
52983;BME280;48698;45.736;13.926;2023-01-28T09:47:58;97797.78;;;1.32;100.00
52983;BME280;48698;45.736;13.926;2023-01-28T09:53:21;97809.69;;;1.54;100.00
52983;BME280;48698;45.736;13.926;2023-01-28T09:58:26;97453.38;;;-0.58;100.00
52983;BME280;48698;45.736;13.926;2023-01-28T10:03:50;97582.53;;;0.59;100.00
52983;BME280;48698;45.736;13.926;2023-01-28T10:09:14;97801.03;;;2.12;100.00
52983;BME280;48698;45.736;13.926;2023-01-28T10:19:49;97795.22;;;1.92;100.00
52983;BME280;48698;45.736;13.926;2023-01-28T10:24:57;97703.41;;;1.44;100.00
52983;BME280;48698;45.736;13.926;2023-01-28T10:30:17;97657.59;;;1.13;100.00
52983;BME280;48698;45.736;13.926;2023-01-28T10:35:21;97817.47;;;2.22;100.00
52983;BME280;48698;45.736;13.926;2023-01-28T10:40:24;97806.28;;;2.11;100.00
52983;BME280;48698;45.736;13.926;2023-01-28T10:45:37;97775.19;;;1.88;100.00
52983;BME280;48698;45.736;13.926;2023-01-28T10:50:55;97708.53;;;1.50;100.00
52983;BME280;48698;45.736;13.926;2023-01-28T10:56:00;97820.75;;;2.34;100.00
52983;BME280;48698;45.736;13.926;2023-01-28T11:01:05;97806.59;;;2.44;100.00
52983;BME280;48698;45.736;13.926;2023-01-28T11:06:17;97804.03;;;2.41;100.00
52983;BME280;48698;45.736;13.926;2023-01-28T11:11:34;97684.41;;;1.88;100.00
52983;BME280;48698;45.736;13.926;2023-01-28T11:16:38;97786.41;;;2.51;100.00
52983;BME280;48698;45.736;13.926;2023-01-28T11:21:53;97587.72;;;1.23;100.00
52983;BME280;48698;45.736;13.926;2023-01-28T11:26:58;97761.22;;;2.41;100.00
52983;BME280;48698;45.736;13.926;2023-01-28T11:32:19;97603.63;;;1.66;100.00
52983;BME280;48698;45.736;13.926;2023-01-28T11:37:25;97766.00;;;2.67;100.00
52983;BME280;48698;45.736;13.926;2023-01-28T11:42:28;97736.66;;;2.48;100.00
52983;BME280;48698;45.736;13.926;2023-01-28T11:48:04;97727.63;;;2.63;100.00
52983;BME280;48698;45.736;13.926;2023-01-28T12:04:20;97754.81;;;2.58;100.00
52983;BME280;48698;45.736;13.926;2023-01-28T12:47:34;97611.47;;;1.66;100.00
52983;BME280;48698;45.736;13.926;2023-01-28T12:52:44;97420.44;;;0.65;100.00
52983;BME280;48698;45.736;13.926;2023-01-28T12:57:56;97697.06;;;2.14;100.00
52983;BME280;48698;45.736;13.926;2023-01-28T13:08:41;97743.97;;;2.78;100.00
52983;BME280;48698;45.736;13.926;2023-01-28T13:13:44;97611.53;;;2.10;100.00
52983;BME280;48698;45.736;13.926;2023-01-28T13:18:48;97600.03;;;2.19;100.00
52983;BME280;48698;45.736;13.926;2023-01-28T13:29:26;97742.16;;;2.80;100.00
52983;BME280;48698;45.736;13.926;2023-01-28T13:34:34;97761.06;;;2.51;100.00
52983;BME280;48698;45.736;13.926;2023-01-28T13:39:38;97618.78;;;1.44;100.00
52983;BME280;48698;45.736;13.926;2023-01-28T13:44:41;97620.72;;;1.31;100.00
52983;BME280;48698;45.736;13.926;2023-01-28T13:49:46;97686.53;;;1.64;100.00
52983;BME280;48698;45.736;13.926;2023-01-28T14:05:55;97787.00;;;2.13;100.00
52983;BME280;48698;45.736;13.926;2023-01-28T14:11:19;97559.28;;;0.37;100.00
52983;BME280;48698;45.736;13.926;2023-01-28T14:16:41;97789.69;;;2.10;100.00
52983;BME280;48698;45.736;13.926;2023-01-28T14:21:54;97747.69;;;1.56;100.00
52983;BME280;48698;45.736;13.926;2023-01-28T14:32:18;97721.81;;;1.37;100.00
52983;BME280;48698;45.736;13.926;2023-01-28T14:37:28;97683.94;;;1.02;100.00
52983;BME280;48698;45.736;13.926;2023-01-28T14:42:37;97817.38;;;1.67;100.00
52983;BME280;48698;45.736;13.926;2023-01-28T14:48:08;97767.91;;;1.48;100.00
52983;BME280;48698;45.736;13.926;2023-01-28T14:58:26;97665.00;;;0.81;100.00
52983;BME280;48698;45.736;13.926;2023-01-28T15:03:31;97744.72;;;1.20;100.00
52983;BME280;48698;45.736;13.926;2023-01-28T15:08:34;97706.03;;;0.76;100.00
52983;BME280;48698;45.736;13.926;2023-01-28T15:13:43;97801.88;;;1.50;100.00
52983;BME280;48698;45.736;13.926;2023-01-28T15:18:47;97662.69;;;0.60;100.00
52983;BME280;48698;45.736;13.926;2023-01-28T15:24:01;97791.78;;;1.20;100.00
52983;BME280;48698;45.736;13.926;2023-01-28T15:29:35;97822.16;;;1.36;100.00
52983;BME280;48698;45.736;13.926;2023-01-28T15:34:44;97820.38;;;1.36;100.00
52983;BME280;48698;45.736;13.926;2023-01-28T15:40:03;97770.53;;;0.75;100.00
52983;BME280;48698;45.736;13.926;2023-01-28T15:45:21;97861.38;;;1.37;100.00
52983;BME280;48698;45.736;13.926;2023-01-28T15:50:24;97878.06;;;1.29;100.00
52983;BME280;48698;45.736;13.926;2023-01-28T15:55:32;97895.59;;;1.16;100.00
52983;BME280;48698;45.736;13.926;2023-01-28T16:00:36;97845.47;;;0.75;100.00
52983;BME280;48698;45.736;13.926;2023-01-28T16:05:40;97701.91;;;-0.42;100.00
52983;BME280;48698;45.736;13.926;2023-01-28T16:10:54;97609.19;;;-0.86;100.00
52983;BME280;48698;45.736;13.926;2023-01-28T16:15:58;97680.31;;;-0.61;100.00
52983;BME280;48698;45.736;13.926;2023-01-28T16:21:03;97939.41;;;0.93;100.00
52983;BME280;48698;45.736;13.926;2023-01-28T16:26:26;97822.38;;;0.25;100.00
52983;BME280;48698;45.736;13.926;2023-01-28T16:31:29;97877.06;;;0.49;100.00
52983;BME280;48698;45.736;13.926;2023-01-28T16:36:32;97868.44;;;0.35;100.00
52983;BME280;48698;45.736;13.926;2023-01-28T16:41:40;97842.41;;;0.24;100.00
52983;BME280;48698;45.736;13.926;2023-01-28T16:46:44;97745.44;;;-0.44;100.00
52983;BME280;48698;45.736;13.926;2023-01-28T16:51:46;97741.84;;;-0.28;100.00
52983;BME280;48698;45.736;13.926;2023-01-28T16:56:50;97611.16;;;-1.17;100.00
52983;BME280;48698;45.736;13.926;2023-01-28T17:01:52;97725.34;;;-0.36;100.00
52983;BME280;48698;45.736;13.926;2023-01-28T17:06:55;97793.13;;;-0.23;100.00
52983;BME280;48698;45.736;13.926;2023-01-28T17:11:57;97605.97;;;-1.24;100.00
52983;BME280;48698;45.736;13.926;2023-01-28T17:17:00;97631.06;;;-1.03;100.00
52983;BME280;48698;45.736;13.926;2023-01-28T17:22:04;97967.53;;;0.65;100.00
52983;BME280;48698;45.736;13.926;2023-01-28T17:27:07;97958.75;;;0.74;100.00
52983;BME280;48698;45.736;13.926;2023-01-28T17:32:11;97925.88;;;0.42;100.00
52983;BME280;48698;45.736;13.926;2023-01-28T17:37:13;97754.19;;;-0.59;100.00
52983;BME280;48698;45.736;13.926;2023-01-28T17:42:16;97742.19;;;-0.84;100.00
52983;BME280;48698;45.736;13.926;2023-01-28T17:47:19;97985.03;;;0.56;100.00
52983;BME280;48698;45.736;13.926;2023-01-28T17:52:22;97851.44;;;-0.25;100.00
52983;BME280;48698;45.736;13.926;2023-01-28T17:57:25;97811.56;;;-0.55;100.00
52983;BME280;48698;45.736;13.926;2023-01-28T18:02:28;98011.16;;;0.56;100.00
52983;BME280;48698;45.736;13.926;2023-01-28T18:07:31;97771.75;;;-0.87;100.00
52983;BME280;48698;45.736;13.926;2023-01-28T18:12:37;97965.22;;;0.14;100.00
52983;BME280;48698;45.736;13.926;2023-01-28T18:17:39;97741.47;;;-1.20;100.00
52983;BME280;48698;45.736;13.926;2023-01-28T18:22:43;98006.06;;;0.27;100.00
52983;BME280;48698;45.736;13.926;2023-01-28T18:27:46;97793.44;;;-0.85;100.00
52983;BME280;48698;45.736;13.926;2023-01-28T18:32:48;97710.22;;;-1.30;100.00
52983;BME280;48698;45.736;13.926;2023-01-28T18:37:51;97769.28;;;-1.23;100.00
52983;BME280;48698;45.736;13.926;2023-01-28T18:42:54;98039.94;;;0.46;100.00
52983;BME280;48698;45.736;13.926;2023-01-28T18:47:57;97937.50;;;-0.16;100.00
52983;BME280;48698;45.736;13.926;2023-01-28T18:53:00;98092.97;;;0.73;100.00
52983;BME280;48698;45.736;13.926;2023-01-28T18:58:03;97830.88;;;-0.96;100.00
52983;BME280;48698;45.736;13.926;2023-01-28T19:03:06;98079.06;;;0.62;100.00
52983;BME280;48698;45.736;13.926;2023-01-28T19:08:09;97915.06;;;-0.61;100.00
52983;BME280;48698;45.736;13.926;2023-01-28T19:13:12;97813.50;;;-1.05;100.00
52983;BME280;48698;45.736;13.926;2023-01-28T19:18:15;97965.34;;;-0.20;100.00
52983;BME280;48698;45.736;13.926;2023-01-28T19:23:18;98099.94;;;0.63;100.00
52983;BME280;48698;45.736;13.926;2023-01-28T19:28:20;97829.16;;;-1.03;100.00
52983;BME280;48698;45.736;13.926;2023-01-28T19:33:23;97932.44;;;-0.51;100.00
52983;BME280;48698;45.736;13.926;2023-01-28T19:38:26;98000.97;;;0.03;100.00
52983;BME280;48698;45.736;13.926;2023-01-28T19:43:29;98099.06;;;0.69;100.00
52983;BME280;48698;45.736;13.926;2023-01-28T19:48:32;97987.03;;;0.07;100.00
52983;BME280;48698;45.736;13.926;2023-01-28T19:53:36;97800.50;;;-1.16;100.00
52983;BME280;48698;45.736;13.926;2023-01-28T19:58:41;97909.78;;;-0.41;100.00
52983;BME280;48698;45.736;13.926;2023-01-28T20:03:48;97908.97;;;-0.54;100.00
52983;BME280;48698;45.736;13.926;2023-01-28T20:08:53;97992.28;;;-0.03;100.00
52983;BME280;48698;45.736;13.926;2023-01-28T20:13:56;97752.75;;;-1.22;100.00
52983;BME280;48698;45.736;13.926;2023-01-28T20:19:06;98110.44;;;0.62;100.00
52983;BME280;48698;45.736;13.926;2023-01-28T20:24:10;98110.41;;;0.65;100.00
52983;BME280;48698;45.736;13.926;2023-01-28T20:29:15;98108.75;;;0.51;100.00
52983;BME280;48698;45.736;13.926;2023-01-28T20:34:19;98101.75;;;0.53;100.00
52983;BME280;48698;45.736;13.926;2023-01-28T20:39:22;97839.59;;;-1.08;100.00
52983;BME280;48698;45.736;13.926;2023-01-28T20:44:25;98081.03;;;0.08;100.00
52983;BME280;48698;45.736;13.926;2023-01-28T20:49:33;98131.41;;;0.43;100.00
52983;BME280;48698;45.736;13.926;2023-01-28T20:54:46;98053.16;;;0.10;100.00
52983;BME280;48698;45.736;13.926;2023-01-28T20:59:59;98130.56;;;0.34;100.00
52983;BME280;48698;45.736;13.926;2023-01-28T21:05:02;98136.63;;;0.43;100.00
52983;BME280;48698;45.736;13.926;2023-01-28T21:10:16;98134.03;;;0.45;100.00
52983;BME280;48698;45.736;13.926;2023-01-28T21:15:19;97959.47;;;-0.84;100.00
52983;BME280;48698;45.736;13.926;2023-01-28T21:20:25;97956.81;;;-0.67;100.00
52983;BME280;48698;45.736;13.926;2023-01-28T21:25:27;98176.66;;;0.61;100.00
52983;BME280;48698;45.736;13.926;2023-01-28T21:30:31;98050.56;;;0.06;100.00
52983;BME280;48698;45.736;13.926;2023-01-28T21:35:43;98189.72;;;0.61;100.00
52983;BME280;48698;45.736;13.926;2023-01-28T21:41:00;98167.03;;;0.70;100.00
52983;BME280;48698;45.736;13.926;2023-01-28T21:46:04;98151.44;;;0.52;100.00
52983;BME280;48698;45.736;13.926;2023-01-28T21:51:07;98081.03;;;0.04;100.00
52983;BME280;48698;45.736;13.926;2023-01-28T21:56:29;98116.69;;;0.26;100.00
52983;BME280;48698;45.736;13.926;2023-01-28T22:01:32;98001.09;;;-0.32;100.00
52983;BME280;48698;45.736;13.926;2023-01-28T22:06:35;98054.13;;;-0.17;100.00
52983;BME280;48698;45.736;13.926;2023-01-28T22:11:41;98188.78;;;0.77;100.00
52983;BME280;48698;45.736;13.926;2023-01-28T22:16:45;98188.78;;;0.74;100.00
52983;BME280;48698;45.736;13.926;2023-01-28T22:21:48;98009.81;;;-0.45;100.00
52983;BME280;48698;45.736;13.926;2023-01-28T22:26:52;98026.28;;;-0.19;100.00
52983;BME280;48698;45.736;13.926;2023-01-28T22:31:55;97897.78;;;-1.05;100.00
52983;BME280;48698;45.736;13.926;2023-01-28T22:36:58;98104.47;;;0.28;100.00
52983;BME280;48698;45.736;13.926;2023-01-28T22:42:01;98078.41;;;0.13;100.00
52983;BME280;48698;45.736;13.926;2023-01-28T22:47:04;98176.69;;;0.51;100.00
52983;BME280;48698;45.736;13.926;2023-01-28T22:52:06;98181.84;;;0.73;100.00
52983;BME280;48698;45.736;13.926;2023-01-28T22:57:10;98122.72;;;0.43;100.00
52983;BME280;48698;45.736;13.926;2023-01-28T23:02:12;98013.28;;;-0.34;100.00
52983;BME280;48698;45.736;13.926;2023-01-28T23:07:16;97952.47;;;-0.67;100.00
52983;BME280;48698;45.736;13.926;2023-01-28T23:12:18;98086.19;;;0.32;100.00
52983;BME280;48698;45.736;13.926;2023-01-28T23:17:21;98079.31;;;-0.05;100.00
52983;BME280;48698;45.736;13.926;2023-01-28T23:22:43;98178.38;;;0.65;100.00
52983;BME280;48698;45.736;13.926;2023-01-28T23:28:04;98194.91;;;0.71;100.00
52983;BME280;48698;45.736;13.926;2023-01-28T23:33:07;98209.69;;;0.83;100.00
52983;BME280;48698;45.736;13.926;2023-01-28T23:38:10;98219.28;;;0.79;100.00
52983;BME280;48698;45.736;13.926;2023-01-28T23:43:13;98104.53;;;0.13;100.00
52983;BME280;48698;45.736;13.926;2023-01-28T23:48:17;98067.09;;;0.09;100.00
52983;BME280;48698;45.736;13.926;2023-01-28T23:53:20;98133.19;;;0.34;100.00
52983;BME280;48698;45.736;13.926;2023-01-28T23:58:23;98164.47;;;0.53;100.00
